MAPA DE AEROPUERTO

INFORMACIÓN METAR y TAF

METAR FOR LESU
ADDS - METARS form results

(1713 UTC 07 May 2021)
Data provider http://aviationweather.gov/metar/data/
 
METAR text: LESU 071700Z 20005KT 160V230 9999 BKN078 23/08 Q1016
Conditions at: LESU (LA SEU , ES) observed 1700 UTC 07 May 2021
Temperature: 23.0°C (73°F)
Dewpoint: 8.0°C (46°F) [RH = 38%]
Pressure (altimeter): 30.00 inches Hg (1016.0 mb)
Winds: from the SSW (200 degrees) at 6 MPH (5 knots; 2.6 m/s)
Visibility: 6 or more miles (10+ km)
Ceiling: 7800 feet AGL
Clouds: broken clouds at 7800 feet AGL
Weather: no significant weather observed at this time

METAR text: LESU 071630Z 18006KT 150V210 9999 BKN081 23/09 Q1016
Conditions at: LESU (LA SEU , ES) observed 1630 UTC 07 May 2021
Temperature: 23.0°C (73°F)
Dewpoint: 9.0°C (48°F) [RH = 41%]
Pressure (altimeter): 30.00 inches Hg (1016.0 mb)
Winds: from the S (180 degrees) at 7 MPH (6 knots; 3.1 m/s)
Visibility: 6 or more miles (10+ km)
Ceiling: 8100 feet AGL
Clouds: broken clouds at 8100 feet AGL
Weather: no significant weather observed at this time

Forecast for: LESU (LA SEU , ES)
Text: TAF LESU 071400Z 0715/0815 VRB04KT 9999 FEW060 TX27/0814Z TN09/0806Z
Forecast period: 1500 UTC 07 May 2021 to 1500 UTC 08 May 2021
Forecast type: FROM: standard forecast or significant change
Winds: variable direction winds at 5 MPH (4 knots; 2.1 m/s)
Visibility: 6 or more miles (10+ km)
Ceiling: at least 12,000 feet AGL
Clouds: few clouds at 6000 feet AGL
Weather: no significant weather forecast for this period
Text: TEMPO 0715/0718 30009KT
Forecast period: 1500 to 1800 UTC 07 May 2021
Forecast type: TEMPORARY: The following changes expected for less than half the time period
Winds: from the WNW (300 degrees) at 10 MPH (9 knots; 4.6 m/s)
Visibility: missing
Ceiling: unknown
Clouds: missing
Weather: no significant weather forecast for this period
Text: PROB30
Forecast period: 2200 UTC 07 May 2021 to 0600 UTC 08 May 2021
Forecast type: TEMPORARY: The following changes expected for less than half the time period
Visibility: 1.86 miles (2.99 km)
Ceiling: 800 feet AGL
Clouds: broken clouds at 800 feet AGL
Weather: BR  (mist)
Text: TEMPO 0722/0806 3000 BR BKN008
Forecast period: 1200 to 1500 UTC 08 May 2021
Forecast type: TEMPORARY: The following changes expected for less than half the time period
Winds: from the SSW (200 degrees) at 10 MPH (9 knots; 4.6 m/s)
Visibility: missing
Ceiling: unknown
Clouds: missing
Weather: no significant weather forecast for this period